createdAt,value
2018-06-20T00:01:24.914Z,98841.91
2018-06-20T00:03:54.998Z,98843.85
2018-06-20T00:06:24.118Z,98836.98
2018-06-20T00:08:53.970Z,98842.35
2018-06-20T00:11:24.550Z,98838.45
2018-06-20T00:13:54.619Z,98839.34
2018-06-20T00:16:24.180Z,98838.28
2018-06-20T00:18:53.323Z,98838.43
2018-06-20T00:21:22.543Z,98837.58
2018-06-20T00:23:51.631Z,98835.85
2018-06-20T00:26:20.750Z,98837.91
2018-06-20T00:28:49.850Z,98834.73
2018-06-20T00:31:19.706Z,98834.37
2018-06-20T00:33:48.826Z,98835.41
2018-06-20T00:36:17.918Z,98826.86
2018-06-20T00:38:46.996Z,98832.31
2018-06-20T00:41:16.138Z,98823.75
2018-06-20T00:43:45.230Z,98823.47
2018-06-20T00:46:14.358Z,98826.31
2018-06-20T00:48:43.459Z,98822.35
2018-06-20T00:51:12.591Z,98823.89
2018-06-20T00:53:42.483Z,98820.48
2018-06-20T00:56:23.414Z,98819.69
2018-06-20T00:58:52.554Z,98820.80
2018-06-20T01:01:22.358Z,98819.77
2018-06-20T01:03:52.005Z,98823.77
2018-06-20T01:06:21.212Z,98825.05
2018-06-20T01:08:54.394Z,98823.61
2018-06-20T01:11:23.829Z,98826.17
2018-06-20T01:13:52.957Z,98822.55
2018-06-20T01:16:22.147Z,98826.04
2018-06-20T01:18:51.909Z,98822.95
2018-06-20T01:21:21.306Z,98825.22
2018-06-20T01:23:50.443Z,98821.08
2018-06-20T01:26:19.527Z,98819.52
2018-06-20T01:28:48.636Z,98817.95
2018-06-20T01:31:17.774Z,98818.83
2018-06-20T01:33:47.198Z,98823.94
2018-06-20T01:36:16.298Z,98820.49
2018-06-20T01:38:45.418Z,98814.44
2018-06-20T01:41:14.960Z,98816.83
2018-06-20T01:43:44.081Z,98815.89
2018-06-20T01:46:13.192Z,98820.03
2018-06-20T01:48:42.286Z,98811.97
2018-06-20T01:51:11.406Z,98812.23
2018-06-20T01:53:40.494Z,98810.54
2018-06-20T01:56:09.582Z,98808.56
2018-06-20T01:58:39.398Z,98809.84
2018-06-20T02:01:08.487Z,98812.51
2018-06-20T02:03:37.603Z,98811.13
2018-06-20T02:06:06.730Z,98812.59
2018-06-20T02:08:35.819Z,98808.62
2018-06-20T02:11:05.674Z,98811.03
2018-06-20T02:13:35.343Z,98805.71
2018-06-20T02:16:04.494Z,98807.03
2018-06-20T02:18:33.592Z,98808.53
2018-06-20T02:21:02.690Z,98806.39
2018-06-20T02:23:31.742Z,98808.05
2018-06-20T02:26:00.846Z,98797.91
2018-06-20T02:28:29.961Z,98802.54
2018-06-20T02:30:59.267Z,98802.25
2018-06-20T02:33:28.398Z,98801.11
2018-06-20T02:36:01.854Z,98801.87
2018-06-20T02:38:30.942Z,98805.44
2018-06-20T02:41:00.042Z,98808.49
2018-06-20T02:43:29.134Z,98808.69
2018-06-20T02:46:06.479Z,98809.58
2018-06-20T02:48:35.335Z,98800.80
2018-06-20T02:51:04.451Z,98807.14
2018-06-20T02:53:33.547Z,98805.26
2018-06-20T02:56:06.465Z,98806.42
2018-06-20T02:58:35.600Z,98804.56
2018-06-20T03:01:04.803Z,98802.17
2018-06-20T03:03:33.923Z,98805.55
2018-06-20T03:06:03.204Z,98797.66
2018-06-20T03:08:32.282Z,98796.27
2018-06-20T03:11:01.387Z,98791.42
2018-06-20T03:13:30.482Z,98790.13
2018-06-20T03:15:59.652Z,98788.14
2018-06-20T03:18:28.912Z,98792.27
2018-06-20T03:20:58.188Z,98794.94
2018-06-20T03:23:27.322Z,98791.31
2018-06-20T03:25:56.428Z,98786.27
2018-06-20T03:28:25.540Z,98784.89
2018-06-20T03:30:54.682Z,98785.98
2018-06-20T03:33:23.838Z,98788.84
2018-06-20T03:35:52.935Z,98783.42
2018-06-20T03:38:22.039Z,98782.52
2018-06-20T03:40:51.126Z,98778.27
2018-06-20T03:43:20.230Z,98778.24
2018-06-20T03:45:49.329Z,98785.95
2018-06-20T03:48:18.430Z,98784.73
2018-06-20T03:50:47.519Z,98785.95
2018-06-20T03:53:16.634Z,98781.81
2018-06-20T03:55:45.784Z,98781.97
2018-06-20T03:58:14.872Z,98778.50
2018-06-20T04:00:44.799Z,98775.20
2018-06-20T04:03:13.907Z,98779.22
2018-06-20T04:05:43.008Z,98779.06
2018-06-20T04:08:12.218Z,98780.95
2018-06-20T04:10:41.342Z,98783.38
2018-06-20T04:13:13.539Z,98785.59
2018-06-20T04:15:42.750Z,98778.77
2018-06-20T04:18:11.950Z,98775.99
2018-06-20T04:20:41.174Z,98776.86
2018-06-20T04:23:10.266Z,98774.03
2018-06-20T04:25:39.382Z,98768.33
2018-06-20T04:28:08.551Z,98764.52
2018-06-20T04:30:38.076Z,98769.23
2018-06-20T04:33:07.138Z,98771.27
2018-06-20T04:35:36.253Z,98771.73
2018-06-20T04:38:05.320Z,98763.58
2018-06-20T04:40:34.403Z,98767.02
2018-06-20T04:43:04.333Z,98760.84
2018-06-20T04:45:33.393Z,98763.52
2018-06-20T04:48:02.474Z,98766.13
2018-06-20T04:50:31.574Z,98758.05
2018-06-20T04:53:00.639Z,98761.17
2018-06-20T04:55:29.794Z,98758.53
2018-06-20T04:57:58.854Z,98755.56
2018-06-20T05:00:27.927Z,98754.08
2018-06-20T05:02:57.018Z,98762.67
2018-06-20T05:05:26.199Z,98762.75
2018-06-20T05:07:55.330Z,98758.33
2018-06-20T05:10:24.403Z,98754.89
2018-06-20T05:12:53.533Z,98752.06
2018-06-20T05:15:22.614Z,98757.16
2018-06-20T05:17:52.382Z,98761.47
2018-06-20T05:20:22.067Z,98761.32
2018-06-20T05:22:51.199Z,98751.80
2018-06-20T05:25:20.366Z,98753.55
2018-06-20T05:27:49.504Z,98744.48
2018-06-20T05:30:18.612Z,98754.88
2018-06-20T05:32:47.850Z,98750.52
2018-06-20T05:35:16.972Z,98743.13
2018-06-20T05:37:46.084Z,98747.52
2018-06-20T05:40:15.287Z,98740.12
2018-06-20T05:42:44.415Z,98739.20
2018-06-20T05:45:13.611Z,98740.02
2018-06-20T05:47:42.779Z,98739.86
2018-06-20T05:50:11.883Z,98740.09
2018-06-20T05:52:40.960Z,98735.73
2018-06-20T05:55:10.097Z,98731.97
2018-06-20T05:57:39.206Z,98731.30
2018-06-20T06:00:09.038Z,98736.02
2018-06-20T06:02:38.214Z,98729.28
2018-06-20T06:05:09.204Z,98739.46
2018-06-20T06:07:38.226Z,98735.30
2018-06-20T06:10:12.466Z,98730.84
2018-06-20T06:12:42.475Z,98739.09
2018-06-20T06:15:12.163Z,98733.71
2018-06-20T06:17:41.495Z,98736.78
2018-06-20T06:20:11.335Z,98725.22
2018-06-20T06:22:41.163Z,98731.20
2018-06-20T06:25:11.210Z,98733.82
2018-06-20T06:27:40.358Z,98734.55
2018-06-20T06:30:09.555Z,98734.15
2018-06-20T06:32:38.819Z,98727.69
2018-06-20T06:35:07.911Z,98723.62
2018-06-20T06:37:37.488Z,98720.13
2018-06-20T06:40:06.898Z,98720.02
2018-06-20T06:42:36.195Z,98721.70
2018-06-20T06:45:05.451Z,98718.26
2018-06-20T06:47:34.647Z,98712.22
2018-06-20T06:50:03.843Z,98709.29
2018-06-20T06:52:32.947Z,98710.91
2018-06-20T06:55:02.512Z,98720.03
2018-06-20T06:57:32.003Z,98708.80
2018-06-20T07:00:01.132Z,98709.67
2018-06-20T07:02:30.211Z,98705.52
2018-06-20T07:04:59.278Z,98708.02
2018-06-20T07:07:28.402Z,98707.72
2018-06-20T07:09:57.622Z,98704.27
2018-06-20T07:12:26.882Z,98698.66
2018-06-20T07:14:56.043Z,98701.84
2018-06-20T07:17:25.212Z,98701.11
2018-06-20T07:19:54.348Z,98706.84
2018-06-20T07:22:24.190Z,98705.20
2018-06-20T07:24:53.646Z,98697.17
2018-06-20T07:27:22.919Z,98694.92
2018-06-20T07:29:52.151Z,98694.31
2018-06-20T07:32:21.470Z,98695.01
2018-06-20T07:34:50.602Z,98690.80
2018-06-20T07:37:19.936Z,98689.64
2018-06-20T07:39:49.182Z,98686.89
2018-06-20T07:42:18.439Z,98683.77
2018-06-20T07:44:47.615Z,98681.87
2018-06-20T07:47:16.711Z,98685.83
2018-06-20T07:49:45.811Z,98681.46
2018-06-20T07:52:14.982Z,98680.05
2018-06-20T07:54:43.869Z,98683.95
2018-06-20T07:57:12.978Z,98678.30
2018-06-20T07:59:47.378Z,98677.47
2018-06-20T08:02:38.682Z,98676.49
2018-06-20T08:05:13.039Z,98676.29
2018-06-20T08:07:47.304Z,98668.97
2018-06-20T08:10:21.751Z,98669.76
2018-06-20T08:12:56.019Z,98673.54
2018-06-20T08:15:30.321Z,98670.01
2018-06-20T08:18:04.759Z,98666.66
2018-06-20T08:20:34.038Z,98658.31
2018-06-20T08:23:03.115Z,98668.94
2018-06-20T08:25:32.634Z,98663.76
2018-06-20T08:28:01.715Z,98653.91
2018-06-20T08:30:31.011Z,98661.06
2018-06-20T08:33:00.306Z,98659.95
2018-06-20T08:35:33.029Z,98665.35
2018-06-20T08:38:03.119Z,98656.00
2018-06-20T08:40:32.766Z,98656.82
2018-06-20T08:43:02.148Z,98649.92
2018-06-20T08:45:31.531Z,98647.28
2018-06-20T08:48:00.715Z,98647.66
2018-06-20T08:50:29.871Z,98640.20
2018-06-20T08:52:59.010Z,98651.43
2018-06-20T08:55:28.382Z,98640.59
2018-06-20T08:57:57.634Z,98649.22
2018-06-20T09:00:32.040Z,98640.50
2018-06-20T09:03:01.575Z,98639.44
2018-06-20T09:05:35.995Z,98640.17
2018-06-20T09:08:10.299Z,98643.27
2018-06-20T09:10:44.598Z,98635.38
2018-06-20T09:13:18.961Z,98638.37
2018-06-20T09:15:53.331Z,98631.78
2018-06-20T09:18:27.717Z,98635.58
2018-06-20T09:20:57.214Z,98634.45
2018-06-20T09:23:27.183Z,98632.17
2018-06-20T09:25:56.069Z,98624.67
2018-06-20T09:28:25.186Z,98622.09
2018-06-20T09:30:54.834Z,98629.61
2018-06-20T09:33:24.431Z,98632.72
2018-06-20T09:35:53.579Z,98637.39
2018-06-20T09:38:22.825Z,98629.55
2018-06-20T09:40:51.947Z,98621.86
2018-06-20T09:43:21.505Z,98625.36
2018-06-20T09:45:50.794Z,98628.42
2018-06-20T09:48:20.550Z,98623.08
2018-06-20T09:50:57.716Z,98625.86
2018-06-20T09:53:27.234Z,98615.87
2018-06-20T09:55:56.307Z,98611.09
2018-06-20T09:58:26.003Z,98610.36
2018-06-20T10:01:01.822Z,98611.52
2018-06-20T10:03:36.871Z,98603.27
2018-06-20T10:06:11.160Z,98609.52
2018-06-20T10:08:45.393Z,98609.70
2018-06-20T10:11:19.703Z,98612.20
2018-06-20T10:13:50.687Z,98612.85
2018-06-20T10:16:19.778Z,98598.22
2018-06-20T10:18:48.974Z,98595.56
2018-06-20T10:21:18.178Z,98602.82
2018-06-20T10:23:47.227Z,98597.03
2018-06-20T10:26:16.306Z,98595.73
2018-06-20T10:28:45.406Z,98590.28
2018-06-20T10:31:14.491Z,98587.60
2018-06-20T10:33:43.603Z,98590.94
2018-06-20T10:36:12.711Z,98589.38
2018-06-20T10:38:42.190Z,98582.63
2018-06-20T10:41:11.550Z,98584.58
2018-06-20T10:43:40.622Z,98584.80
2018-06-20T10:46:14.985Z,98575.59
2018-06-20T10:48:44.787Z,98578.41
2018-06-20T10:51:13.847Z,98575.47
2018-06-20T10:53:43.039Z,98569.88
2018-06-20T10:56:12.163Z,98563.48
2018-06-20T10:58:46.797Z,98562.05
2018-06-20T11:01:21.651Z,98557.30
2018-06-20T11:03:55.983Z,98560.39
2018-06-20T11:06:30.633Z,98549.04
2018-06-20T11:09:04.934Z,98551.20
2018-06-20T11:11:39.364Z,98544.20
2018-06-20T11:14:08.914Z,98541.67
2018-06-20T11:16:38.059Z,98535.30
2018-06-20T11:19:08.450Z,98527.72
2018-06-20T11:21:37.843Z,98537.36
2018-06-20T11:24:07.007Z,98533.47
2018-06-20T11:26:36.162Z,98528.63
2018-06-20T11:29:05.522Z,98528.63
2018-06-20T11:31:34.703Z,98523.17
2018-06-20T11:34:05.239Z,98520.91
2018-06-20T11:36:34.362Z,98521.55
2018-06-20T11:39:03.864Z,98516.23
2018-06-20T11:41:32.958Z,98518.98
2018-06-20T11:44:02.711Z,98512.71
2018-06-20T11:46:37.414Z,98514.25
2018-06-20T11:49:06.966Z,98508.67
2018-06-20T11:51:36.086Z,98504.80
2018-06-20T11:54:07.828Z,98507.30
2018-06-20T11:56:36.959Z,98502.69
2018-06-20T11:59:11.566Z,98501.73
2018-06-20T12:01:46.031Z,98502.66
2018-06-20T12:06:24.973Z,98494.41
2018-06-20T12:08:59.335Z,98478.75
2018-06-20T12:11:33.740Z,98478.52
2018-06-20T12:14:08.247Z,98483.75
2018-06-20T12:16:38.095Z,98475.05
2018-06-20T12:19:12.588Z,98474.05
2018-06-20T12:21:47.038Z,98473.95
2018-06-20T12:24:21.346Z,98463.86
2018-06-20T12:26:55.706Z,98473.59
2018-06-20T12:29:30.718Z,98475.02
2018-06-20T12:32:05.215Z,98469.57
2018-06-20T12:34:39.542Z,98474.83
2018-06-20T12:37:13.846Z,98463.03
2018-06-20T12:39:42.050Z,98464.06
2018-06-20T12:42:16.382Z,98460.73
2018-06-20T12:44:51.026Z,98455.45
2018-06-20T12:47:23.978Z,98462.34
2018-06-20T12:50:00.542Z,98455.13
2018-06-20T12:52:31.648Z,98451.91
2018-06-20T12:55:00.783Z,98451.80
2018-06-20T12:57:29.912Z,98452.97
2018-06-20T12:59:59.049Z,98444.70
2018-06-20T13:02:28.165Z,98440.84
2018-06-20T13:04:57.264Z,98442.30
2018-06-20T13:07:26.373Z,98437.00
2018-06-20T13:09:55.442Z,98444.56
2018-06-20T13:12:25.267Z,98433.63
2018-06-20T13:14:54.419Z,98433.39
2018-06-20T13:17:23.495Z,98434.70
2018-06-20T13:19:52.582Z,98416.97
2018-06-20T13:22:21.938Z,98420.50
2018-06-20T13:24:51.073Z,98425.81
2018-06-20T13:27:25.338Z,98418.16
2018-06-20T13:29:59.691Z,98413.61
2018-06-20T13:32:34.234Z,98410.47
2018-06-20T13:35:08.646Z,98401.47
2018-06-20T13:37:42.967Z,98400.85
2018-06-20T13:40:17.367Z,98402.66
2018-06-20T13:44:54.595Z,98399.34
2018-06-20T13:47:30.750Z,98393.03
2018-06-20T13:50:00.478Z,98388.45
2018-06-20T13:52:29.671Z,98386.20
2018-06-20T13:54:58.795Z,98377.41
2018-06-20T13:57:28.090Z,98386.63
2018-06-20T13:59:57.406Z,98381.20
2018-06-20T14:02:26.503Z,98379.45
2018-06-20T14:04:55.582Z,98378.66
2018-06-20T14:07:24.682Z,98373.11
2018-06-20T14:09:53.751Z,98375.02
2018-06-20T14:12:22.872Z,98365.46
2018-06-20T14:14:52.519Z,98369.41
2018-06-20T14:17:22.003Z,98367.20
2018-06-20T14:19:56.334Z,98364.08
2018-06-20T14:22:25.831Z,98363.13
2018-06-20T14:24:54.906Z,98374.16
2018-06-20T14:27:24.118Z,98371.00
2018-06-20T14:29:53.191Z,98366.11
2018-06-20T14:32:27.467Z,98366.86
2018-06-20T14:35:01.956Z,98356.72
2018-06-20T14:37:36.097Z,98354.17
2018-06-20T14:42:14.419Z,98357.63
2018-06-20T14:44:43.523Z,98348.44
2018-06-20T14:47:12.704Z,98349.25
2018-06-20T14:49:41.842Z,98353.48
2018-06-20T14:52:11.027Z,98350.14
2018-06-20T14:54:41.301Z,98348.45
2018-06-20T14:57:10.443Z,98350.52
2018-06-20T14:59:39.722Z,98339.95
2018-06-20T15:02:09.195Z,98333.59
2018-06-20T15:04:38.304Z,98338.78
2018-06-20T15:07:07.495Z,98339.15
2018-06-20T15:09:37.398Z,98337.26
2018-06-20T15:12:08.365Z,98326.89
2018-06-20T15:14:37.475Z,98330.55
2018-06-20T15:17:11.786Z,98325.04
2018-06-20T15:19:40.890Z,98323.35
2018-06-20T15:22:10.012Z,98332.95
2018-06-20T15:24:39.135Z,98325.73
2018-06-20T15:27:13.572Z,98318.67
2018-06-20T15:29:47.938Z,98315.80
2018-06-20T15:32:22.322Z,98306.97
2018-06-20T15:34:57.331Z,98302.16
2018-06-20T15:37:31.690Z,98303.45
2018-06-20T15:40:00.794Z,98300.18
2018-06-20T15:42:29.987Z,98299.30
2018-06-20T15:44:59.139Z,98297.06
2018-06-20T15:47:28.267Z,98294.50
2018-06-20T15:49:57.383Z,98290.02
2018-06-20T15:52:27.243Z,98293.50
2018-06-20T15:54:56.340Z,98292.17
2018-06-20T15:57:25.482Z,98295.59
2018-06-20T15:59:54.654Z,98287.61
2018-06-20T16:02:24.179Z,98289.44
2018-06-20T16:04:53.592Z,98292.41
2018-06-20T16:07:23.003Z,98287.47
2018-06-20T16:09:56.342Z,98286.16
2018-06-20T16:12:25.955Z,98281.80
2018-06-20T16:14:55.647Z,98279.68
2018-06-20T16:17:24.801Z,98282.06
2018-06-20T16:19:59.079Z,98279.55
2018-06-20T16:22:33.385Z,98274.59
2018-06-20T16:25:07.890Z,98281.74
2018-06-20T16:27:42.739Z,98274.06
2018-06-20T16:30:17.565Z,98273.30
2018-06-20T16:32:46.720Z,98274.77
2018-06-20T16:35:18.015Z,98266.34
2018-06-20T16:37:47.864Z,98269.84
2018-06-20T16:40:16.940Z,98268.13
2018-06-20T16:42:46.077Z,98264.72
2018-06-20T16:45:15.304Z,98267.88
2018-06-20T16:47:44.657Z,98267.61
2018-06-20T16:50:13.891Z,98260.63
2018-06-20T16:52:43.198Z,98264.23
2018-06-20T16:55:12.318Z,98260.02
2018-06-20T16:57:41.434Z,98260.74
2018-06-20T17:00:10.599Z,98264.43
2018-06-20T17:02:41.631Z,98258.17
2018-06-20T17:05:11.559Z,98253.27
2018-06-20T17:07:40.879Z,98256.89
2018-06-20T17:10:10.042Z,98245.81
2018-06-20T17:12:44.434Z,98254.59
2018-06-20T17:15:18.739Z,98253.53
2018-06-20T17:17:53.307Z,98250.22
2018-06-20T17:20:27.696Z,98255.94
2018-06-20T17:23:02.035Z,98258.48
2018-06-20T17:25:33.613Z,98253.57
2018-06-20T17:28:02.903Z,98253.16
2018-06-20T17:30:32.090Z,98249.55
2018-06-20T17:33:01.465Z,98247.27
2018-06-20T17:35:31.486Z,98242.78
2018-06-20T17:38:01.430Z,98242.50
2018-06-20T17:40:31.310Z,98238.16
2018-06-20T17:43:00.576Z,98242.13
2018-06-20T17:45:30.318Z,98246.41
2018-06-20T17:48:00.231Z,98247.36
2018-06-20T17:50:30.170Z,98247.80
2018-06-20T17:53:00.091Z,98246.11
2018-06-20T17:55:29.979Z,98247.22
2018-06-20T17:57:59.869Z,98242.83
2018-06-20T18:00:29.855Z,98248.68
2018-06-20T18:02:59.736Z,98242.13
2018-06-20T18:05:34.023Z,98245.28
2018-06-20T18:08:08.866Z,98252.19
2018-06-20T18:10:43.776Z,98247.41
2018-06-20T18:13:15.897Z,98243.71
2018-06-20T18:15:50.810Z,98248.28
2018-06-20T18:18:20.395Z,98248.37
2018-06-20T18:20:49.562Z,98243.14
2018-06-20T18:23:18.838Z,98243.61
2018-06-20T18:25:48.143Z,98240.62
2018-06-20T18:28:17.694Z,98241.41
2018-06-20T18:30:46.954Z,98236.70
2018-06-20T18:33:16.787Z,98239.63
2018-06-20T18:35:45.960Z,98237.84
2018-06-20T18:38:15.617Z,98243.39
2018-06-20T18:40:46.958Z,98238.33
2018-06-20T18:43:16.196Z,98240.13
2018-06-20T18:45:45.350Z,98242.54
2018-06-20T18:48:20.810Z,98241.14
2018-06-20T18:50:50.051Z,98239.08
2018-06-20T18:53:19.315Z,98239.33
2018-06-20T18:55:49.275Z,98242.69
2018-06-20T18:58:25.151Z,98236.27
2018-06-20T19:01:00.608Z,98236.99
2018-06-20T19:03:36.412Z,98241.22
2018-06-20T19:06:11.851Z,98240.71
2018-06-20T19:08:46.546Z,98238.05
2018-06-20T19:11:15.634Z,98241.63
2018-06-20T19:13:44.797Z,98246.45
2018-06-20T19:16:14.003Z,98249.11
2018-06-20T19:18:43.196Z,98244.52
2018-06-20T19:21:12.831Z,98242.50
2018-06-20T19:23:42.087Z,98238.02
2018-06-20T19:26:11.943Z,98246.38
2018-06-20T19:28:41.146Z,98249.11
2018-06-20T19:31:10.294Z,98253.82
2018-06-20T19:33:40.114Z,98262.29
2018-06-20T19:36:09.771Z,98252.83
2018-06-20T19:38:39.030Z,98264.38
2018-06-20T19:41:08.943Z,98259.81
2018-06-20T19:43:43.374Z,98261.38
2018-06-20T19:46:13.339Z,98263.73
2018-06-20T19:48:42.494Z,98268.81
2018-06-20T19:51:11.832Z,98262.98
2018-06-20T19:53:41.235Z,98268.59
2018-06-20T19:56:10.963Z,98272.20
2018-06-20T19:58:40.245Z,98271.47
2018-06-20T20:01:09.514Z,98275.30
2018-06-20T20:03:39.063Z,98274.20
2018-06-20T20:06:08.279Z,98283.75
2018-06-20T20:08:37.848Z,98278.64
2018-06-20T20:11:07.226Z,98275.84
2018-06-20T20:13:37.142Z,98280.25
2018-06-20T20:16:07.004Z,98281.16
2018-06-20T20:18:36.203Z,98280.49
2018-06-20T20:21:05.458Z,98275.17
2018-06-20T20:23:34.687Z,98280.16
2018-06-20T20:26:03.872Z,98279.36
2018-06-20T20:28:33.338Z,98285.72
2018-06-20T20:31:03.240Z,98283.42
2018-06-20T20:33:33.277Z,98280.50
2018-06-20T20:36:02.467Z,98281.87
2018-06-20T20:38:32.179Z,98287.09
2018-06-20T20:41:01.677Z,98293.92
2018-06-20T20:43:30.855Z,98294.22
2018-06-20T20:46:00.305Z,98297.09
2018-06-20T20:48:29.503Z,98298.66
2018-06-20T20:50:58.703Z,98304.44
2018-06-20T20:53:28.034Z,98308.30
2018-06-20T20:55:57.478Z,98303.16
2018-06-20T20:58:26.627Z,98306.02
2018-06-20T21:00:55.764Z,98306.56
2018-06-20T21:03:24.924Z,98300.13
2018-06-20T21:05:57.395Z,98305.67
2018-06-20T21:08:26.554Z,98308.28
2018-06-20T21:10:56.115Z,98304.16
2018-06-20T21:13:25.331Z,98307.05
2018-06-20T21:15:54.534Z,98304.95
2018-06-20T21:18:24.122Z,98303.16
2018-06-20T21:20:53.247Z,98308.10
2018-06-20T21:23:22.406Z,98301.36
2018-06-20T21:25:51.555Z,98298.52
2018-06-20T21:28:20.670Z,98294.56
2018-06-20T21:30:49.798Z,98293.77
2018-06-20T21:33:18.931Z,98295.31
2018-06-20T21:35:48.123Z,98290.39
2018-06-20T21:38:17.339Z,98301.52
2018-06-20T21:40:46.963Z,98289.02
2018-06-20T21:43:16.175Z,98295.23
2018-06-20T21:45:46.427Z,98293.67
2018-06-20T21:48:15.591Z,98290.23
2018-06-20T21:50:44.698Z,98289.20
2018-06-20T21:53:14.035Z,98288.45
2018-06-20T21:55:43.135Z,98285.13
2018-06-20T21:58:12.285Z,98281.16
2018-06-20T22:00:41.725Z,98282.66
2018-06-20T22:03:11.018Z,98284.42
2018-06-20T22:05:40.080Z,98284.44
2018-06-20T22:08:09.431Z,98276.36
2018-06-20T22:10:38.623Z,98276.88
2018-06-20T22:13:08.843Z,98273.23
2018-06-20T22:15:38.079Z,98274.02
2018-06-20T22:18:07.252Z,98276.34
2018-06-20T22:20:36.406Z,98273.72
2018-06-20T22:23:05.583Z,98277.03
2018-06-20T22:25:35.540Z,98277.48
2018-06-20T22:28:04.921Z,98271.49
2018-06-20T22:30:34.061Z,98271.76
2018-06-20T22:33:03.658Z,98271.61
2018-06-20T22:35:32.860Z,98272.17
2018-06-20T22:38:02.659Z,98268.00
2018-06-20T22:40:31.906Z,98266.70
2018-06-20T22:43:01.081Z,98271.50
2018-06-20T22:45:30.246Z,98268.54
2018-06-20T22:47:59.380Z,98259.13
2018-06-20T22:50:28.930Z,98262.25
2018-06-20T22:52:58.131Z,98264.33
2018-06-20T22:55:28.011Z,98262.98
2018-06-20T22:57:57.247Z,98264.54
2018-06-20T23:00:26.391Z,98260.33
2018-06-20T23:02:56.092Z,98255.93
2018-06-20T23:05:25.257Z,98251.41
2018-06-20T23:07:54.435Z,98253.66
2018-06-20T23:10:24.021Z,98243.73
2018-06-20T23:12:55.089Z,98239.09
2018-06-20T23:15:24.932Z,98240.63
2018-06-20T23:17:54.115Z,98234.57
2018-06-20T23:20:23.239Z,98235.97
2018-06-20T23:22:53.003Z,98233.06
2018-06-20T23:25:22.158Z,98228.38
2018-06-20T23:27:51.045Z,98232.55
2018-06-20T23:30:20.228Z,98230.99
2018-06-20T23:32:49.370Z,98224.06
2018-06-20T23:35:18.475Z,98224.76
2018-06-20T23:37:48.608Z,98225.19
2018-06-20T23:40:17.735Z,98225.59
2018-06-20T23:42:46.935Z,98227.64
2018-06-20T23:45:16.419Z,98225.23
2018-06-20T23:47:45.534Z,98226.94
2018-06-20T23:50:15.433Z,98220.16
2018-06-20T23:52:45.405Z,98220.83
2018-06-20T23:55:14.540Z,98222.67
2018-06-20T23:57:43.762Z,98220.48
